River Forest, Illinois
Current Conditions -  °F | °C
As of 3:53 AM on Tuesday 21 Oct 2014 (Local Time) from KMDW Reporting Station
Overcast Overcast  
Wind Chill: 12°   Ceiling: 5000
Heat Index: 12°   Visibility: 10mi
Dew Point:   Wind: 12mph
Humidity: 69%   Direction: 350°N
Pressure: 30.02"   Gusts: NA
Location:  41.88°N, 87.82°W
Report Text: KMDW 210853Z 35010KT 10SM FEW037 OVC050 12/06 A3002 RMK AO2 SLP165 T01170061 51007
Loading
Personal Weather Stations






























Interactive Weather Map
Tropical Storm Tracking
New forecast layout! Learn more

10-Day Weather Forecast

Advertisements
Track Severe Weather on mobile